Search for airport 
image banner adimage banner ad
image banner ad

LEYESA - La Yesa

Located in , Spain

ICAO - , IATA -

Data provided by Airmate  

General information

Coordinates: N39°54'33" W0°56'53"
Elevation is 3675 feet MSL.
 
Rated:
View ratings: [VIEW]


View others Airports in Valencia

Operational data

Open for public use
Current time UTC:
Current local time:
Weather at : LEBT - Valencia/Betera ( 52 km )
METAR: LEBT 091330Z AUTO 12012KT 070V160 CAVOK 31/16 Q1016
View NOTAMs / SUP AIP / TFR affecting this airport [VIEW]
Communications frequencies: [VIEW]

Runways:

RWY identifierQFULength (ft)Width (ft)SurfaceLDA (ft)
06295366DIRT
24295366DIRT

Airport contact information

Address: Spain

Satellite view of LEYESA